Aviation Digital Data Service (ADDS)

Output produced by METARs form (1720 UTC 20 January 2019)
found at http://www.aviationweather.gov/metar/data/
 
GQPA 201500Z 36008KT CAVOK 26/02 Q1022
GQPP 201500Z 06007KT 8000 NSC 25/02 Q1021 NOSIG
TAF GQPP 201100Z 2012/2112 03015KT 7000 NSC